Flight Track Log - Related Links

Times and Time Zones

All times are in EDT time to prevent confusion due to time zone crossing. See the CHQ6101 flight status page for this flight to view local times or setup timezone preferences in your user account.

Time Position Orientation Groundspeed Altitude Reporting Facility
EDT Latitude Longitude Course Direction KTS MPH feet Rate Location/Type
Fri 02:04:45 PM 40.7422 -73.8422 21° North 170 196 25,000  Level Boston Center
Fri 02:05:46 PM 40.7486 -73.7831 82° East 236 272 3,400 -9,463 Descending Boston Center
Fri 02:06:48 PM 40.8083 -73.7428 27° Northeast 240 276 5,600 2,341 Climbing Boston Center
Fri 02:07:49 PM 40.8850 -73.6842 30° Northeast 264 304 8,200 2,195 Climbing Boston Center
Fri 02:08:00 PM 41.2367 -73.4929 33° Northeast  Level FlightAware Approximate
Fri 02:08:51 PM 40.9542 -73.6308 30° Northeast 284 327 10,100  Level Boston Center
Fri 02:09:00 PM 41.3330 -73.4225 27° Northeast  Level FlightAware Approximate
Fri 02:09:52 PM 41.0350 -73.5717 29° Northeast 302 348 12,000  Level Boston Center
Fri 02:10:00 PM 40.8516 -73.7992 21° North  Level FlightAware Approximate
Fri 02:10:53 PM 41.1128 -73.5122 30° Northeast 321 369 13,600  Level Boston Center
Fri 02:11:55 PM 41.1939 -73.4500 30° Northeast 335 386 15,000 1,463 Climbing Boston Center
Fri 02:12:56 PM 41.2878 -73.3808 29° Northeast 353 406 16,600 1,707 Climbing Boston Center
Fri 02:13:58 PM 41.3725 -73.3206 28° Northeast 355 409 18,500 1,742 Climbing Boston Center
Fri 02:15:00 PM 41.4486 -73.2636 29° Northeast 355 409 20,200 1,561 Climbing Boston Center
Fri 02:16:01 PM 41.5522 -73.2447 North 347 399 21,700 1,171 Climbing Boston Center
Fri 02:17:03 PM 41.6514 -73.2494 358° North 353 406 22,600 927 Climbing Boston Center
Fri 02:18:04 PM 41.7553 -73.2572 357° North 368 423 23,600 976 Climbing Boston Center
Fri 02:19:06 PM 41.8633 -73.2647 357° North 382 440 24,600 683 Climbing Boston Center
Fri 02:20:07 PM 41.9731 -73.2733 357° North 390 449 25,000 195 Climbing Boston Center
Fri 02:21:09 PM 42.0900 -73.2794 358° North 416 479 25,000  Level Boston Center
Fri 02:22:10 PM 42.2308 -73.2906 357° North 420 483 25,000  Level Boston Center
Fri 02:23:12 PM 42.3478 -73.2986 357° North 420 483 25,000  Level Boston Center
Fri 02:24:13 PM 42.4656 -73.3061 357° North 420 483 25,000  Level Boston Center
Fri 02:25:15 PM 42.5822 -73.3147 357° North 419 482 25,000  Level Boston Center
Fri 02:26:17 PM 42.6964 -73.2856 11° North 423 487 25,000  Level Boston Center
Fri 02:27:18 PM 42.7778 -73.1631 48° Northeast 438 504 25,000  Level Boston Center
Fri 02:28:20 PM 42.8478 -73.0247 55° Northeast 438 504 25,000  Level Boston Center
Fri 02:29:21 PM 42.9122 -72.8969 55° Northeast 439 505 25,000  Level Boston Center
Fri 02:30:23 PM 42.9942 -72.7328 56° Northeast 439 505 25,000  Level Boston Center
Fri 02:31:24 PM 43.0586 -72.6014 56° Northeast 439 505 25,000  Level Boston Center
Fri 02:32:26 PM 43.1267 -72.4625 56° Northeast 439 505 25,000  Level Boston Center
Fri 02:33:27 PM 43.1917 -72.3308 56° Northeast 440 506 25,000  Level Boston Center
Fri 02:34:29 PM 43.2742 -72.1633 56° Northeast 441 507 25,000  Level Boston Center
Fri 02:35:31 PM 43.3417 -72.0222 57° Northeast 443 510 25,000  Level Boston Center
Fri 02:36:33 PM 43.4097 -71.8822 56° Northeast 443 510 25,000  Level Boston Center
Fri 02:37:34 PM 43.4778 -71.7406 56° Northeast 444 511 25,000  Level Boston Center
Fri 02:38:35 PM 43.5458 -71.5992 56° Northeast 443 510 25,000  Level Boston Center
Fri 02:39:37 PM 43.6128 -71.4581 57° Northeast 442 509 25,000  Level Boston Center
Fri 02:40:38 PM 43.6842 -71.3081 57° Northeast 443 510 25,000  Level Boston Center
Fri 02:41:40 PM 43.7506 -71.1644 57° Northeast 443 510 25,000  Level Boston Center
Fri 02:42:42 PM 43.8186 -71.0225 56° Northeast 442 509 25,000 -195 Level Boston Center
Fri 02:43:43 PM 43.8867 -70.8797 56° Northeast 442 509 24,600 -1,024 Descending Boston Center
Fri 02:44:45 PM 43.9619 -70.7142 58° Northeast 422 486 22,900 -1,463 Descending Boston Center
Fri 02:45:46 PM 44.0225 -70.5861 57° Northeast 401 461 21,600 -1,317 Descending Boston Center
Fri 02:46:48 PM 44.0781 -70.4608 58° Northeast 383 441 20,200 -1,355 Descending Boston Center
Fri 02:47:50 PM 44.1392 -70.3297 57° Northeast 372 428 18,800 -1,366 Descending Boston Center
Fri 02:48:51 PM 44.1978 -70.2017 57° Northeast 389 448 17,400 -1,317 Descending Boston Center
Fri 02:49:53 PM 44.2572 -70.0697 58° Northeast 397 457 16,100 -1,306 Descending Boston Center
Fri 02:50:55 PM 44.3144 -69.9422 58° Northeast 392 451 14,700 -1,366 Descending Boston Center
Fri 02:51:56 PM 44.3750 -69.8067 58° Northeast 386 444 13,300 -1,366 Descending Boston Center
Fri 02:52:58 PM 44.4217 -69.6867 61° Northeast 351 404 11,900 -1,113 Descending Boston Center
Fri 02:54:00 PM 44.4619 -69.5631 65° Northeast 341 392 11,000 -1,073 Descending Boston Center
Fri 02:55:01 PM 44.4947 -69.4539 67° East 309 356 9,700 -1,561 Descending Boston Center
Fri 02:56:03 PM 44.5272 -69.3522 66° East 292 336 7,800 -1,805 Descending Boston Center
Fri 02:57:04 PM 44.5564 -69.2556 67° East 277 319 6,000 -1,659 Descending Boston Center
Fri 02:58:06 PM 44.5833 -69.1647 67° East 258 297 4,400 -1,113 Descending Boston Center
Fri 02:59:08 PM 44.6114 -69.0742 66° East 256 295 3,700 -634 Descending Boston Center
Fri 03:00:09 PM 44.6375 -68.9892 67° East 244 281 3,100 -390 Descending Boston Center
Fri 03:01:11 PM 44.6694 -68.8925 65° Northeast 232 267 2,900 -290 Descending Boston Center
Fri 03:02:13 PM 44.7044 -68.8197 56° Northeast 228 262 2,500 -585 Descending Boston Center
Fri 03:03:14 PM 44.7428 -68.7783 37° Northeast 182 209 1,700 -878 Descending Boston Center
Fri 03:04:16 PM 44.7803 -68.7903 347° North 165 190 700 -677 Descending Boston Center
Fri 03:05:18 PM 44.8064 -68.8261 316° Northwest 156 180 300 -387 Descending Boston Center

Login

Don't have an account? Register now (free) for customized features, flight alerts, and more!